sensor_id;sensor_type;location;lat;lon;timestamp;temperature;humidity
19552;DHT22;9921;47.186;9.778;2023-05-10T00:01:07;14.70;99.90
19552;DHT22;9921;47.186;9.778;2023-05-10T00:03:34;14.80;99.90
19552;DHT22;9921;47.186;9.778;2023-05-10T00:06:01;14.90;99.90
19552;DHT22;9921;47.186;9.778;2023-05-10T00:08:29;14.80;99.90
19552;DHT22;9921;47.186;9.778;2023-05-10T00:10:56;14.70;99.90
19552;DHT22;9921;47.186;9.778;2023-05-10T00:13:23;14.70;99.90
19552;DHT22;9921;47.186;9.778;2023-05-10T00:15:50;14.70;99.90
19552;DHT22;9921;47.186;9.778;2023-05-10T00:18:17;14.70;99.90
19552;DHT22;9921;47.186;9.778;2023-05-10T00:20:44;14.70;99.90
19552;DHT22;9921;47.186;9.778;2023-05-10T00:23:11;14.70;99.90
19552;DHT22;9921;47.186;9.778;2023-05-10T00:25:40;14.60;99.90
19552;DHT22;9921;47.186;9.778;2023-05-10T00:28:07;14.70;99.90
19552;DHT22;9921;47.186;9.778;2023-05-10T00:30:33;14.80;99.90
19552;DHT22;9921;47.186;9.778;2023-05-10T00:33:00;14.90;99.90
19552;DHT22;9921;47.186;9.778;2023-05-10T00:35:28;14.90;99.90
19552;DHT22;9921;47.186;9.778;2023-05-10T00:37:55;14.90;99.90
19552;DHT22;9921;47.186;9.778;2023-05-10T00:40:22;15.00;99.90
19552;DHT22;9921;47.186;9.778;2023-05-10T00:42:50;15.10;99.90
19552;DHT22;9921;47.186;9.778;2023-05-10T00:45:17;14.80;99.90
19552;DHT22;9921;47.186;9.778;2023-05-10T00:47:45;14.80;99.90
19552;DHT22;9921;47.186;9.778;2023-05-10T00:50:12;14.60;99.90
19552;DHT22;9921;47.186;9.778;2023-05-10T00:52:39;14.60;99.90
19552;DHT22;9921;47.186;9.778;2023-05-10T00:55:07;14.60;99.90
19552;DHT22;9921;47.186;9.778;2023-05-10T00:57:34;14.70;99.90
19552;DHT22;9921;47.186;9.778;2023-05-10T01:00:03;14.70;99.90
19552;DHT22;9921;47.186;9.778;2023-05-10T01:02:30;14.70;99.90
19552;DHT22;9921;47.186;9.778;2023-05-10T01:04:57;14.80;99.90
19552;DHT22;9921;47.186;9.778;2023-05-10T01:07:24;14.90;99.90
19552;DHT22;9921;47.186;9.778;2023-05-10T01:09:51;14.90;99.90
19552;DHT22;9921;47.186;9.778;2023-05-10T01:12:18;14.90;99.90
19552;DHT22;9921;47.186;9.778;2023-05-10T01:14:45;15.00;99.90
19552;DHT22;9921;47.186;9.778;2023-05-10T01:17:13;15.00;99.90
19552;DHT22;9921;47.186;9.778;2023-05-10T01:19:41;15.00;99.90
19552;DHT22;9921;47.186;9.778;2023-05-10T01:22:30;15.10;99.90
19552;DHT22;9921;47.186;9.778;2023-05-10T01:25:31;15.10;99.90
19552;DHT22;9921;47.186;9.778;2023-05-10T01:28:18;15.10;99.90
19552;DHT22;9921;47.186;9.778;2023-05-10T01:31:15;15.10;99.90
19552;DHT22;9921;47.186;9.778;2023-05-10T01:33:51;15.20;99.90
19552;DHT22;9921;47.186;9.778;2023-05-10T01:36:23;15.30;99.90
19552;DHT22;9921;47.186;9.778;2023-05-10T01:38:57;15.30;99.90
19552;DHT22;9921;47.186;9.778;2023-05-10T01:41:32;15.30;99.90
19552;DHT22;9921;47.186;9.778;2023-05-10T01:44:10;15.20;99.90
19552;DHT22;9921;47.186;9.778;2023-05-10T01:46:40;15.20;99.90
19552;DHT22;9921;47.186;9.778;2023-05-10T01:49:11;15.20;99.90
19552;DHT22;9921;47.186;9.778;2023-05-10T01:51:45;15.10;99.90
19552;DHT22;9921;47.186;9.778;2023-05-10T01:54:14;15.10;99.90
19552;DHT22;9921;47.186;9.778;2023-05-10T01:56:44;15.00;99.90
19552;DHT22;9921;47.186;9.778;2023-05-10T01:59:17;15.00;99.90
19552;DHT22;9921;47.186;9.778;2023-05-10T02:01:45;15.00;99.90
19552;DHT22;9921;47.186;9.778;2023-05-10T02:04:17;15.10;99.90
19552;DHT22;9921;47.186;9.778;2023-05-10T02:06:47;15.10;99.90
19552;DHT22;9921;47.186;9.778;2023-05-10T02:09:15;15.10;99.90
19552;DHT22;9921;47.186;9.778;2023-05-10T02:11:43;15.10;99.90
19552;DHT22;9921;47.186;9.778;2023-05-10T02:14:11;15.10;99.90
19552;DHT22;9921;47.186;9.778;2023-05-10T02:16:39;15.10;99.90
19552;DHT22;9921;47.186;9.778;2023-05-10T02:19:07;15.10;99.90
19552;DHT22;9921;47.186;9.778;2023-05-10T02:21:37;15.10;99.90
19552;DHT22;9921;47.186;9.778;2023-05-10T02:24:06;15.10;99.90
19552;DHT22;9921;47.186;9.778;2023-05-10T02:26:35;15.10;99.90
19552;DHT22;9921;47.186;9.778;2023-05-10T02:29:03;15.10;99.90
19552;DHT22;9921;47.186;9.778;2023-05-10T02:31:33;15.10;99.90
19552;DHT22;9921;47.186;9.778;2023-05-10T02:34:01;15.10;99.90
19552;DHT22;9921;47.186;9.778;2023-05-10T02:36:29;15.10;99.90
19552;DHT22;9921;47.186;9.778;2023-05-10T02:38:59;15.10;99.90
19552;DHT22;9921;47.186;9.778;2023-05-10T02:41:30;15.10;99.90
19552;DHT22;9921;47.186;9.778;2023-05-10T02:43:59;15.10;99.90
19552;DHT22;9921;47.186;9.778;2023-05-10T02:46:28;15.10;99.90
19552;DHT22;9921;47.186;9.778;2023-05-10T02:48:55;15.00;99.90
19552;DHT22;9921;47.186;9.778;2023-05-10T02:51:25;15.00;99.90
19552;DHT22;9921;47.186;9.778;2023-05-10T02:53:55;15.00;99.90
19552;DHT22;9921;47.186;9.778;2023-05-10T02:56:28;15.00;99.90
19552;DHT22;9921;47.186;9.778;2023-05-10T02:58:58;15.00;99.90
19552;DHT22;9921;47.186;9.778;2023-05-10T03:01:25;14.90;99.90
19552;DHT22;9921;47.186;9.778;2023-05-10T03:03:51;14.80;99.90
19552;DHT22;9921;47.186;9.778;2023-05-10T03:06:19;14.70;99.90
19552;DHT22;9921;47.186;9.778;2023-05-10T03:08:45;14.70;99.90
19552;DHT22;9921;47.186;9.778;2023-05-10T03:11:32;14.70;99.90
19552;DHT22;9921;47.186;9.778;2023-05-10T03:14:12;14.80;99.90
19552;DHT22;9921;47.186;9.778;2023-05-10T03:16:42;14.80;99.90
19552;DHT22;9921;47.186;9.778;2023-05-10T03:19:16;14.90;99.90
19552;DHT22;9921;47.186;9.778;2023-05-10T03:21:47;14.90;99.90
19552;DHT22;9921;47.186;9.778;2023-05-10T03:24:17;14.90;99.90
19552;DHT22;9921;47.186;9.778;2023-05-10T03:26:47;14.80;99.90
19552;DHT22;9921;47.186;9.778;2023-05-10T03:29:15;14.70;99.90
19552;DHT22;9921;47.186;9.778;2023-05-10T03:31:43;14.50;99.90
19552;DHT22;9921;47.186;9.778;2023-05-10T03:34:10;14.50;99.90
19552;DHT22;9921;47.186;9.778;2023-05-10T03:36:37;14.40;99.90
19552;DHT22;9921;47.186;9.778;2023-05-10T03:39:03;14.50;99.90
19552;DHT22;9921;47.186;9.778;2023-05-10T03:41:30;14.50;99.90
19552;DHT22;9921;47.186;9.778;2023-05-10T03:43:59;14.50;99.90
19552;DHT22;9921;47.186;9.778;2023-05-10T03:46:25;14.50;99.90
19552;DHT22;9921;47.186;9.778;2023-05-10T03:48:52;14.50;99.90
19552;DHT22;9921;47.186;9.778;2023-05-10T03:51:19;14.50;99.90
19552;DHT22;9921;47.186;9.778;2023-05-10T03:53:46;14.50;99.90
19552;DHT22;9921;47.186;9.778;2023-05-10T03:56:13;14.50;99.90
19552;DHT22;9921;47.186;9.778;2023-05-10T03:58:40;14.50;99.90
19552;DHT22;9921;47.186;9.778;2023-05-10T04:01:08;14.50;99.90
19552;DHT22;9921;47.186;9.778;2023-05-10T04:03:35;14.50;99.90
19552;DHT22;9921;47.186;9.778;2023-05-10T04:06:02;14.40;99.90
19552;DHT22;9921;47.186;9.778;2023-05-10T04:08:29;14.30;99.90
19552;DHT22;9921;47.186;9.778;2023-05-10T04:11:04;14.20;99.90
19552;DHT22;9921;47.186;9.778;2023-05-10T04:13:32;14.20;99.90
19552;DHT22;9921;47.186;9.778;2023-05-10T04:15:59;14.20;99.90
19552;DHT22;9921;47.186;9.778;2023-05-10T04:18:27;14.20;99.90
19552;DHT22;9921;47.186;9.778;2023-05-10T04:20:54;14.00;99.90
19552;DHT22;9921;47.186;9.778;2023-05-10T04:23:20;14.00;99.90
19552;DHT22;9921;47.186;9.778;2023-05-10T04:25:47;14.00;99.90
19552;DHT22;9921;47.186;9.778;2023-05-10T04:28:14;14.00;99.90
19552;DHT22;9921;47.186;9.778;2023-05-10T04:30:41;14.00;99.90
19552;DHT22;9921;47.186;9.778;2023-05-10T04:33:08;14.00;99.90
19552;DHT22;9921;47.186;9.778;2023-05-10T04:35:36;14.00;99.90
19552;DHT22;9921;47.186;9.778;2023-05-10T04:38:04;14.00;99.90
19552;DHT22;9921;47.186;9.778;2023-05-10T04:40:31;14.00;99.90
19552;DHT22;9921;47.186;9.778;2023-05-10T04:42:57;14.00;99.90
19552;DHT22;9921;47.186;9.778;2023-05-10T04:45:24;14.00;99.90
19552;DHT22;9921;47.186;9.778;2023-05-10T04:47:51;14.00;99.90
19552;DHT22;9921;47.186;9.778;2023-05-10T04:50:18;14.20;99.90
19552;DHT22;9921;47.186;9.778;2023-05-10T04:52:46;14.30;99.90
19552;DHT22;9921;47.186;9.778;2023-05-10T04:55:13;14.30;99.90
19552;DHT22;9921;47.186;9.778;2023-05-10T04:57:40;14.30;99.90
19552;DHT22;9921;47.186;9.778;2023-05-10T05:00:07;14.30;99.90
19552;DHT22;9921;47.186;9.778;2023-05-10T05:02:34;14.40;99.90
19552;DHT22;9921;47.186;9.778;2023-05-10T05:05:01;14.40;99.90
19552;DHT22;9921;47.186;9.778;2023-05-10T05:07:28;14.40;99.90
19552;DHT22;9921;47.186;9.778;2023-05-10T05:09:57;14.40;99.90
19552;DHT22;9921;47.186;9.778;2023-05-10T05:12:24;14.50;99.90
19552;DHT22;9921;47.186;9.778;2023-05-10T05:14:51;14.50;99.90
19552;DHT22;9921;47.186;9.778;2023-05-10T05:17:18;14.40;99.90
19552;DHT22;9921;47.186;9.778;2023-05-10T05:19:44;14.40;99.90
19552;DHT22;9921;47.186;9.778;2023-05-10T05:22:11;14.40;99.90
19552;DHT22;9921;47.186;9.778;2023-05-10T05:24:38;14.40;99.90
19552;DHT22;9921;47.186;9.778;2023-05-10T05:27:06;14.40;99.90
19552;DHT22;9921;47.186;9.778;2023-05-10T05:29:33;14.30;99.90
19552;DHT22;9921;47.186;9.778;2023-05-10T05:32:00;14.40;99.90
19552;DHT22;9921;47.186;9.778;2023-05-10T05:34:27;14.40;99.90
19552;DHT22;9921;47.186;9.778;2023-05-10T05:36:54;14.40;99.90
19552;DHT22;9921;47.186;9.778;2023-05-10T05:39:21;14.50;99.90
19552;DHT22;9921;47.186;9.778;2023-05-10T05:41:47;14.50;99.90
19552;DHT22;9921;47.186;9.778;2023-05-10T05:44:16;14.50;99.90
19552;DHT22;9921;47.186;9.778;2023-05-10T05:46:42;14.60;99.90
19552;DHT22;9921;47.186;9.778;2023-05-10T05:49:09;14.70;99.90
19552;DHT22;9921;47.186;9.778;2023-05-10T05:51:36;14.80;99.90
19552;DHT22;9921;47.186;9.778;2023-05-10T05:54:03;14.90;99.90
19552;DHT22;9921;47.186;9.778;2023-05-10T05:56:30;15.00;99.90
19552;DHT22;9921;47.186;9.778;2023-05-10T05:58:57;15.00;99.90
19552;DHT22;9921;47.186;9.778;2023-05-10T06:01:25;15.00;99.90
19552;DHT22;9921;47.186;9.778;2023-05-10T06:03:52;14.90;99.90
19552;DHT22;9921;47.186;9.778;2023-05-10T06:06:19;14.90;99.90
19552;DHT22;9921;47.186;9.778;2023-05-10T06:08:45;14.90;99.90
19552;DHT22;9921;47.186;9.778;2023-05-10T06:11:12;15.00;99.90
19552;DHT22;9921;47.186;9.778;2023-05-10T06:13:39;15.10;99.90
19552;DHT22;9921;47.186;9.778;2023-05-10T06:16:07;15.00;99.90
19552;DHT22;9921;47.186;9.778;2023-05-10T06:18:35;15.00;99.90
19552;DHT22;9921;47.186;9.778;2023-05-10T06:21:02;15.00;99.90
19552;DHT22;9921;47.186;9.778;2023-05-10T06:23:29;15.00;99.90
19552;DHT22;9921;47.186;9.778;2023-05-10T06:25:56;15.10;99.90
19552;DHT22;9921;47.186;9.778;2023-05-10T06:28:23;15.10;99.90
19552;DHT22;9921;47.186;9.778;2023-05-10T06:30:50;15.20;99.90
19552;DHT22;9921;47.186;9.778;2023-05-10T06:33:17;15.10;99.90
19552;DHT22;9921;47.186;9.778;2023-05-10T06:35:45;15.10;99.90
19552;DHT22;9921;47.186;9.778;2023-05-10T06:38:12;15.10;99.90
19552;DHT22;9921;47.186;9.778;2023-05-10T06:40:41;15.00;99.90
19552;DHT22;9921;47.186;9.778;2023-05-10T06:43:08;14.60;99.90
19552;DHT22;9921;47.186;9.778;2023-05-10T06:45:35;14.30;99.90
19552;DHT22;9921;47.186;9.778;2023-05-10T06:48:02;13.90;99.90
19552;DHT22;9921;47.186;9.778;2023-05-10T06:50:29;13.80;99.90
19552;DHT22;9921;47.186;9.778;2023-05-10T06:52:57;13.80;99.90
19552;DHT22;9921;47.186;9.778;2023-05-10T06:55:24;13.70;99.90
19552;DHT22;9921;47.186;9.778;2023-05-10T06:57:51;13.50;99.90
19552;DHT22;9921;47.186;9.778;2023-05-10T07:00:19;13.30;99.90
19552;DHT22;9921;47.186;9.778;2023-05-10T07:02:46;13.40;99.90
19552;DHT22;9921;47.186;9.778;2023-05-10T07:05:13;13.30;99.90
19552;DHT22;9921;47.186;9.778;2023-05-10T07:07:40;13.30;99.90
19552;DHT22;9921;47.186;9.778;2023-05-10T07:10:09;13.50;99.90
19552;DHT22;9921;47.186;9.778;2023-05-10T07:12:36;13.60;99.90
19552;DHT22;9921;47.186;9.778;2023-05-10T07:15:04;13.70;99.90
19552;DHT22;9921;47.186;9.778;2023-05-10T07:17:31;13.90;99.90
19552;DHT22;9921;47.186;9.778;2023-05-10T07:19:59;13.90;99.90
19552;DHT22;9921;47.186;9.778;2023-05-10T07:22:25;14.00;99.90
19552;DHT22;9921;47.186;9.778;2023-05-10T07:24:52;14.00;99.90
19552;DHT22;9921;47.186;9.778;2023-05-10T07:27:21;14.10;99.90
19552;DHT22;9921;47.186;9.778;2023-05-10T07:29:47;14.20;99.90
19552;DHT22;9921;47.186;9.778;2023-05-10T07:32:14;14.30;99.90
19552;DHT22;9921;47.186;9.778;2023-05-10T07:34:41;14.40;99.90
19552;DHT22;9921;47.186;9.778;2023-05-10T07:37:08;14.50;99.90
19552;DHT22;9921;47.186;9.778;2023-05-10T07:39:35;14.50;99.90
19552;DHT22;9921;47.186;9.778;2023-05-10T07:42:03;14.50;99.90
19552;DHT22;9921;47.186;9.778;2023-05-10T07:44:31;14.60;99.90
19552;DHT22;9921;47.186;9.778;2023-05-10T07:46:58;14.70;99.90
19552;DHT22;9921;47.186;9.778;2023-05-10T07:49:25;14.80;99.90
19552;DHT22;9921;47.186;9.778;2023-05-10T07:51:52;14.80;99.90
19552;DHT22;9921;47.186;9.778;2023-05-10T07:54:19;14.90;99.90
19552;DHT22;9921;47.186;9.778;2023-05-10T07:56:47;14.90;99.90
19552;DHT22;9921;47.186;9.778;2023-05-10T07:59:15;14.90;99.90
19552;DHT22;9921;47.186;9.778;2023-05-10T08:01:44;14.90;99.90
19552;DHT22;9921;47.186;9.778;2023-05-10T08:04:11;14.90;99.90
19552;DHT22;9921;47.186;9.778;2023-05-10T08:06:38;14.80;99.90
19552;DHT22;9921;47.186;9.778;2023-05-10T08:09:05;14.70;99.90
19552;DHT22;9921;47.186;9.778;2023-05-10T08:11:32;14.80;99.90
19552;DHT22;9921;47.186;9.778;2023-05-10T08:13:59;14.80;99.90
19552;DHT22;9921;47.186;9.778;2023-05-10T08:16:26;14.80;99.90
19552;DHT22;9921;47.186;9.778;2023-05-10T08:18:54;14.90;99.90
19552;DHT22;9921;47.186;9.778;2023-05-10T08:21:21;14.90;99.90
19552;DHT22;9921;47.186;9.778;2023-05-10T08:23:48;14.90;99.90
19552;DHT22;9921;47.186;9.778;2023-05-10T08:26:15;14.80;99.90
19552;DHT22;9921;47.186;9.778;2023-05-10T08:28:42;14.90;99.90
19552;DHT22;9921;47.186;9.778;2023-05-10T08:31:09;14.90;99.90
19552;DHT22;9921;47.186;9.778;2023-05-10T08:33:35;14.90;99.90
19552;DHT22;9921;47.186;9.778;2023-05-10T08:36:04;15.00;99.90
19552;DHT22;9921;47.186;9.778;2023-05-10T08:38:31;15.10;99.90
19552;DHT22;9921;47.186;9.778;2023-05-10T08:40:58;15.20;99.90
19552;DHT22;9921;47.186;9.778;2023-05-10T08:43:27;15.10;99.90
19552;DHT22;9921;47.186;9.778;2023-05-10T08:45:55;15.00;99.90
19552;DHT22;9921;47.186;9.778;2023-05-10T08:48:24;15.10;99.90
19552;DHT22;9921;47.186;9.778;2023-05-10T08:50:53;15.20;99.90
19552;DHT22;9921;47.186;9.778;2023-05-10T08:53:24;15.30;99.90
19552;DHT22;9921;47.186;9.778;2023-05-10T08:55:53;15.30;99.90
19552;DHT22;9921;47.186;9.778;2023-05-10T08:58:20;15.40;99.90
19552;DHT22;9921;47.186;9.778;2023-05-10T09:00:49;15.30;99.90
19552;DHT22;9921;47.186;9.778;2023-05-10T09:03:18;15.40;99.90
19552;DHT22;9921;47.186;9.778;2023-05-10T09:05:44;15.50;99.90
19552;DHT22;9921;47.186;9.778;2023-05-10T09:08:12;15.50;99.90
19552;DHT22;9921;47.186;9.778;2023-05-10T09:10:43;15.40;99.90
19552;DHT22;9921;47.186;9.778;2023-05-10T09:13:12;15.50;99.90
19552;DHT22;9921;47.186;9.778;2023-05-10T09:15:40;15.50;99.90
19552;DHT22;9921;47.186;9.778;2023-05-10T09:18:07;15.50;99.90
19552;DHT22;9921;47.186;9.778;2023-05-10T09:20:34;15.60;99.90
19552;DHT22;9921;47.186;9.778;2023-05-10T09:23:01;15.70;99.90
19552;DHT22;9921;47.186;9.778;2023-05-10T09:25:28;15.80;99.90
19552;DHT22;9921;47.186;9.778;2023-05-10T09:27:56;15.80;99.90
19552;DHT22;9921;47.186;9.778;2023-05-10T09:30:24;15.80;99.90
19552;DHT22;9921;47.186;9.778;2023-05-10T09:32:51;15.90;99.90
19552;DHT22;9921;47.186;9.778;2023-05-10T09:35:19;15.90;99.90
19552;DHT22;9921;47.186;9.778;2023-05-10T09:37:49;15.70;99.90
19552;DHT22;9921;47.186;9.778;2023-05-10T09:40:17;15.60;99.90
19552;DHT22;9921;47.186;9.778;2023-05-10T09:42:52;15.60;99.90
19552;DHT22;9921;47.186;9.778;2023-05-10T09:45:22;15.70;99.90
19552;DHT22;9921;47.186;9.778;2023-05-10T09:47:49;15.70;99.90
19552;DHT22;9921;47.186;9.778;2023-05-10T09:50:16;15.70;99.90
19552;DHT22;9921;47.186;9.778;2023-05-10T09:52:50;15.70;99.90
19552;DHT22;9921;47.186;9.778;2023-05-10T09:55:18;15.60;99.90
19552;DHT22;9921;47.186;9.778;2023-05-10T09:57:46;15.70;99.90
19552;DHT22;9921;47.186;9.778;2023-05-10T10:00:17;15.70;99.90
19552;DHT22;9921;47.186;9.778;2023-05-10T10:02:47;15.70;99.90
19552;DHT22;9921;47.186;9.778;2023-05-10T10:05:15;15.70;99.90
19552;DHT22;9921;47.186;9.778;2023-05-10T10:07:42;15.60;99.90
19552;DHT22;9921;47.186;9.778;2023-05-10T10:10:09;15.60;99.90
19552;DHT22;9921;47.186;9.778;2023-05-10T10:12:39;15.60;99.90
19552;DHT22;9921;47.186;9.778;2023-05-10T10:15:08;15.70;99.90
19552;DHT22;9921;47.186;9.778;2023-05-10T10:17:36;15.70;99.90
19552;DHT22;9921;47.186;9.778;2023-05-10T10:20:06;15.80;99.90
19552;DHT22;9921;47.186;9.778;2023-05-10T10:22:33;15.70;99.90
19552;DHT22;9921;47.186;9.778;2023-05-10T10:25:00;15.90;99.90
19552;DHT22;9921;47.186;9.778;2023-05-10T10:27:35;15.80;99.90
19552;DHT22;9921;47.186;9.778;2023-05-10T10:30:13;15.90;99.90
19552;DHT22;9921;47.186;9.778;2023-05-10T10:33:05;16.00;99.90
19552;DHT22;9921;47.186;9.778;2023-05-10T10:35:35;16.10;99.90
19552;DHT22;9921;47.186;9.778;2023-05-10T10:38:02;16.10;99.90
19552;DHT22;9921;47.186;9.778;2023-05-10T10:40:29;16.10;99.90
19552;DHT22;9921;47.186;9.778;2023-05-10T10:42:58;16.20;99.90
19552;DHT22;9921;47.186;9.778;2023-05-10T10:45:48;16.10;99.90
19552;DHT22;9921;47.186;9.778;2023-05-10T10:48:34;16.10;99.90
19552;DHT22;9921;47.186;9.778;2023-05-10T10:51:03;16.20;99.90
19552;DHT22;9921;47.186;9.778;2023-05-10T10:53:30;16.10;99.90
19552;DHT22;9921;47.186;9.778;2023-05-10T10:56:06;16.00;99.90
19552;DHT22;9921;47.186;9.778;2023-05-10T10:58:35;16.00;99.90
19552;DHT22;9921;47.186;9.778;2023-05-10T11:01:13;16.00;99.90
19552;DHT22;9921;47.186;9.778;2023-05-10T11:03:54;16.10;99.90
19552;DHT22;9921;47.186;9.778;2023-05-10T11:06:33;16.10;99.90
19552;DHT22;9921;47.186;9.778;2023-05-10T11:09:06;16.10;99.90
19552;DHT22;9921;47.186;9.778;2023-05-10T11:11:34;16.10;99.90
19552;DHT22;9921;47.186;9.778;2023-05-10T11:14:03;16.10;99.90
19552;DHT22;9921;47.186;9.778;2023-05-10T11:16:40;16.10;99.90
19552;DHT22;9921;47.186;9.778;2023-05-10T11:19:10;16.10;99.90
19552;DHT22;9921;47.186;9.778;2023-05-10T11:21:46;16.10;99.90
19552;DHT22;9921;47.186;9.778;2023-05-10T11:24:15;15.90;99.90
19552;DHT22;9921;47.186;9.778;2023-05-10T11:26:42;15.90;99.90
19552;DHT22;9921;47.186;9.778;2023-05-10T11:29:09;15.90;99.90
19552;DHT22;9921;47.186;9.778;2023-05-10T11:31:42;15.90;99.90
19552;DHT22;9921;47.186;9.778;2023-05-10T11:34:09;15.80;99.90
19552;DHT22;9921;47.186;9.778;2023-05-10T11:36:36;15.80;99.90
19552;DHT22;9921;47.186;9.778;2023-05-10T11:39:05;15.90;99.90
19552;DHT22;9921;47.186;9.778;2023-05-10T11:41:32;16.00;99.90
19552;DHT22;9921;47.186;9.778;2023-05-10T11:43:59;16.10;99.90
19552;DHT22;9921;47.186;9.778;2023-05-10T11:46:27;15.90;99.90
19552;DHT22;9921;47.186;9.778;2023-05-10T11:48:58;15.90;99.90
19552;DHT22;9921;47.186;9.778;2023-05-10T11:51:26;15.90;99.90
19552;DHT22;9921;47.186;9.778;2023-05-10T11:53:54;16.00;99.90
19552;DHT22;9921;47.186;9.778;2023-05-10T11:56:23;15.90;99.90
19552;DHT22;9921;47.186;9.778;2023-05-10T11:58:55;15.90;99.90
19552;DHT22;9921;47.186;9.778;2023-05-10T12:01:22;15.90;99.90
19552;DHT22;9921;47.186;9.778;2023-05-10T12:03:50;15.80;99.90
19552;DHT22;9921;47.186;9.778;2023-05-10T12:06:18;15.80;99.90
19552;DHT22;9921;47.186;9.778;2023-05-10T12:08:46;15.80;99.90
19552;DHT22;9921;47.186;9.778;2023-05-10T12:11:13;15.80;99.90
19552;DHT22;9921;47.186;9.778;2023-05-10T12:13:44;15.90;99.90
19552;DHT22;9921;47.186;9.778;2023-05-10T12:16:16;15.90;99.90
19552;DHT22;9921;47.186;9.778;2023-05-10T12:18:43;15.90;99.90
19552;DHT22;9921;47.186;9.778;2023-05-10T12:21:11;15.80;99.90
19552;DHT22;9921;47.186;9.778;2023-05-10T12:23:38;15.90;99.90
19552;DHT22;9921;47.186;9.778;2023-05-10T12:26:05;16.00;99.90
19552;DHT22;9921;47.186;9.778;2023-05-10T12:28:33;15.90;99.90
19552;DHT22;9921;47.186;9.778;2023-05-10T12:31:02;16.00;99.90
19552;DHT22;9921;47.186;9.778;2023-05-10T12:33:35;16.00;99.90
19552;DHT22;9921;47.186;9.778;2023-05-10T12:36:05;16.00;99.90
19552;DHT22;9921;47.186;9.778;2023-05-10T12:38:34;15.90;99.90
19552;DHT22;9921;47.186;9.778;2023-05-10T12:41:04;15.90;99.90
19552;DHT22;9921;47.186;9.778;2023-05-10T12:43:32;15.80;99.90
19552;DHT22;9921;47.186;9.778;2023-05-10T12:46:06;15.80;99.90
19552;DHT22;9921;47.186;9.778;2023-05-10T12:48:33;15.70;99.90
19552;DHT22;9921;47.186;9.778;2023-05-10T12:51:00;15.70;99.90
19552;DHT22;9921;47.186;9.778;2023-05-10T12:53:27;15.70;99.90
19552;DHT22;9921;47.186;9.778;2023-05-10T12:55:54;15.80;99.90
19552;DHT22;9921;47.186;9.778;2023-05-10T12:58:21;15.80;99.90
19552;DHT22;9921;47.186;9.778;2023-05-10T13:00:48;15.90;99.90
19552;DHT22;9921;47.186;9.778;2023-05-10T13:03:16;15.90;99.90
19552;DHT22;9921;47.186;9.778;2023-05-10T13:05:43;16.00;99.90
19552;DHT22;9921;47.186;9.778;2023-05-10T13:08:10;16.00;99.90
19552;DHT22;9921;47.186;9.778;2023-05-10T13:10:36;15.90;99.90
19552;DHT22;9921;47.186;9.778;2023-05-10T13:13:03;15.70;99.90
19552;DHT22;9921;47.186;9.778;2023-05-10T13:15:30;15.60;99.90
19552;DHT22;9921;47.186;9.778;2023-05-10T13:17:57;15.60;99.90
19552;DHT22;9921;47.186;9.778;2023-05-10T13:20:26;15.70;99.90
19552;DHT22;9921;47.186;9.778;2023-05-10T13:22:53;15.70;99.90
19552;DHT22;9921;47.186;9.778;2023-05-10T13:25:20;15.60;99.90
19552;DHT22;9921;47.186;9.778;2023-05-10T13:27:47;15.60;99.90
19552;DHT22;9921;47.186;9.778;2023-05-10T13:30:14;15.70;99.90
19552;DHT22;9921;47.186;9.778;2023-05-10T13:32:41;15.70;99.90
19552;DHT22;9921;47.186;9.778;2023-05-10T13:35:08;15.70;99.90
19552;DHT22;9921;47.186;9.778;2023-05-10T13:37:36;15.80;99.90
19552;DHT22;9921;47.186;9.778;2023-05-10T13:40:04;15.80;99.90
19552;DHT22;9921;47.186;9.778;2023-05-10T13:42:31;15.70;99.90
19552;DHT22;9921;47.186;9.778;2023-05-10T13:44:59;15.80;99.90
19552;DHT22;9921;47.186;9.778;2023-05-10T13:47:26;15.80;99.90
19552;DHT22;9921;47.186;9.778;2023-05-10T13:49:53;15.70;99.90
19552;DHT22;9921;47.186;9.778;2023-05-10T13:52:20;15.70;99.90
19552;DHT22;9921;47.186;9.778;2023-05-10T13:54:48;15.70;99.90
19552;DHT22;9921;47.186;9.778;2023-05-10T13:57:17;15.70;99.90
19552;DHT22;9921;47.186;9.778;2023-05-10T13:59:44;15.70;99.90
19552;DHT22;9921;47.186;9.778;2023-05-10T14:02:11;15.80;99.90
19552;DHT22;9921;47.186;9.778;2023-05-10T14:04:38;15.80;99.90
19552;DHT22;9921;47.186;9.778;2023-05-10T14:07:05;15.90;99.90
19552;DHT22;9921;47.186;9.778;2023-05-10T14:09:32;15.80;99.90
19552;DHT22;9921;47.186;9.778;2023-05-10T14:12:00;15.70;99.90
19552;DHT22;9921;47.186;9.778;2023-05-10T14:14:27;15.60;99.90
19552;DHT22;9921;47.186;9.778;2023-05-10T14:16:54;15.50;99.90
19552;DHT22;9921;47.186;9.778;2023-05-10T14:19:21;15.50;99.90
19552;DHT22;9921;47.186;9.778;2023-05-10T14:21:48;15.50;99.90
19552;DHT22;9921;47.186;9.778;2023-05-10T14:24:15;15.50;99.90
19552;DHT22;9921;47.186;9.778;2023-05-10T14:26:42;15.50;99.90
19552;DHT22;9921;47.186;9.778;2023-05-10T14:29:10;15.60;99.90
19552;DHT22;9921;47.186;9.778;2023-05-10T14:31:37;15.60;99.90
19552;DHT22;9921;47.186;9.778;2023-05-10T14:34:04;15.50;99.90
19552;DHT22;9921;47.186;9.778;2023-05-10T14:36:31;15.50;99.90
19552;DHT22;9921;47.186;9.778;2023-05-10T14:38:57;15.30;99.90
19552;DHT22;9921;47.186;9.778;2023-05-10T14:41:24;15.30;99.90
19552;DHT22;9921;47.186;9.778;2023-05-10T14:43:51;15.20;99.90
19552;DHT22;9921;47.186;9.778;2023-05-10T14:46:19;14.90;99.90
19552;DHT22;9921;47.186;9.778;2023-05-10T14:48:46;14.80;99.90
19552;DHT22;9921;47.186;9.778;2023-05-10T14:51:13;14.80;99.90
19552;DHT22;9921;47.186;9.778;2023-05-10T14:53:40;14.50;99.90
19552;DHT22;9921;47.186;9.778;2023-05-10T14:56:07;14.10;99.90
19552;DHT22;9921;47.186;9.778;2023-05-10T14:58:34;13.80;99.90
19552;DHT22;9921;47.186;9.778;2023-05-10T15:01:00;13.60;99.90
19552;DHT22;9921;47.186;9.778;2023-05-10T15:03:29;13.50;99.90
19552;DHT22;9921;47.186;9.778;2023-05-10T15:05:56;13.50;99.90
19552;DHT22;9921;47.186;9.778;2023-05-10T15:08:23;13.40;99.90
19552;DHT22;9921;47.186;9.778;2023-05-10T15:10:50;13.30;99.90
19552;DHT22;9921;47.186;9.778;2023-05-10T15:13:17;13.20;99.90
19552;DHT22;9921;47.186;9.778;2023-05-10T15:15:44;13.20;99.90
19552;DHT22;9921;47.186;9.778;2023-05-10T15:18:11;13.20;99.90
19552;DHT22;9921;47.186;9.778;2023-05-10T15:20:39;13.10;99.90
19552;DHT22;9921;47.186;9.778;2023-05-10T15:23:06;12.90;99.90
19552;DHT22;9921;47.186;9.778;2023-05-10T15:25:33;12.80;99.90
19552;DHT22;9921;47.186;9.778;2023-05-10T15:28:03;12.70;99.90
19552;DHT22;9921;47.186;9.778;2023-05-10T15:30:30;12.80;99.90
19552;DHT22;9921;47.186;9.778;2023-05-10T15:32:56;12.90;99.90
19552;DHT22;9921;47.186;9.778;2023-05-10T15:35:23;13.00;99.90
19552;DHT22;9921;47.186;9.778;2023-05-10T15:37:52;13.10;99.90
19552;DHT22;9921;47.186;9.778;2023-05-10T15:40:18;13.30;99.90
19552;DHT22;9921;47.186;9.778;2023-05-10T15:42:45;13.40;99.90
19552;DHT22;9921;47.186;9.778;2023-05-10T15:45:12;13.40;99.90
19552;DHT22;9921;47.186;9.778;2023-05-10T15:47:40;13.40;99.90
19552;DHT22;9921;47.186;9.778;2023-05-10T15:50:07;13.50;99.90
19552;DHT22;9921;47.186;9.778;2023-05-10T15:52:34;13.40;99.90